sensor_id;sensor_type;location;lat;lon;timestamp;P1;durP1;ratioP1;P2;durP2;ratioP2
3747;SDS011;1889;50.058;8.688;2023-11-22T00:01:40;2.30;;;1.70;;
3747;SDS011;1889;50.058;8.688;2023-11-22T00:04:10;1.50;;;1.40;;
3747;SDS011;1889;50.058;8.688;2023-11-22T00:06:39;1.65;;;1.30;;
3747;SDS011;1889;50.058;8.688;2023-11-22T00:09:08;2.37;;;1.75;;
3747;SDS011;1889;50.058;8.688;2023-11-22T00:11:38;2.65;;;1.90;;
3747;SDS011;1889;50.058;8.688;2023-11-22T00:14:07;1.80;;;1.67;;
3747;SDS011;1889;50.058;8.688;2023-11-22T00:16:36;1.80;;;1.70;;
3747;SDS011;1889;50.058;8.688;2023-11-22T00:19:07;2.92;;;1.85;;
3747;SDS011;1889;50.058;8.688;2023-11-22T00:21:37;1.52;;;1.42;;
3747;SDS011;1889;50.058;8.688;2023-11-22T00:24:06;1.90;;;1.70;;
3747;SDS011;1889;50.058;8.688;2023-11-22T00:26:36;3.17;;;1.60;;
3747;SDS011;1889;50.058;8.688;2023-11-22T00:29:05;2.87;;;1.90;;
3747;SDS011;1889;50.058;8.688;2023-11-22T00:31:35;3.92;;;2.02;;
3747;SDS011;1889;50.058;8.688;2023-11-22T00:34:05;2.55;;;2.10;;
3747;SDS011;1889;50.058;8.688;2023-11-22T00:36:34;2.10;;;1.87;;
3747;SDS011;1889;50.058;8.688;2023-11-22T00:39:04;2.15;;;1.95;;
3747;SDS011;1889;50.058;8.688;2023-11-22T00:41:33;2.87;;;2.00;;
3747;SDS011;1889;50.058;8.688;2023-11-22T00:44:03;2.80;;;1.60;;
3747;SDS011;1889;50.058;8.688;2023-11-22T00:46:33;2.33;;;2.12;;
3747;SDS011;1889;50.058;8.688;2023-11-22T00:49:03;2.50;;;2.10;;
3747;SDS011;1889;50.058;8.688;2023-11-22T00:51:32;3.65;;;2.67;;
3747;SDS011;1889;50.058;8.688;2023-11-22T00:54:02;2.80;;;2.37;;
3747;SDS011;1889;50.058;8.688;2023-11-22T00:56:32;3.70;;;2.42;;
3747;SDS011;1889;50.058;8.688;2023-11-22T00:59:01;2.87;;;2.62;;
3747;SDS011;1889;50.058;8.688;2023-11-22T01:01:31;2.70;;;2.27;;
3747;SDS011;1889;50.058;8.688;2023-11-22T01:04:00;2.77;;;2.50;;
3747;SDS011;1889;50.058;8.688;2023-11-22T01:06:30;3.40;;;2.98;;
3747;SDS011;1889;50.058;8.688;2023-11-22T01:08:59;3.20;;;2.77;;
3747;SDS011;1889;50.058;8.688;2023-11-22T01:11:29;3.90;;;2.92;;
3747;SDS011;1889;50.058;8.688;2023-11-22T01:13:58;3.35;;;3.05;;
3747;SDS011;1889;50.058;8.688;2023-11-22T01:16:27;3.52;;;3.08;;
3747;SDS011;1889;50.058;8.688;2023-11-22T01:18:56;2.92;;;2.60;;
3747;SDS011;1889;50.058;8.688;2023-11-22T01:21:26;3.65;;;3.00;;
3747;SDS011;1889;50.058;8.688;2023-11-22T01:23:55;3.87;;;3.02;;
3747;SDS011;1889;50.058;8.688;2023-11-22T01:26:25;4.42;;;3.52;;
3747;SDS011;1889;50.058;8.688;2023-11-22T01:28:54;3.60;;;3.30;;
3747;SDS011;1889;50.058;8.688;2023-11-22T01:31:24;3.42;;;3.10;;
3747;SDS011;1889;50.058;8.688;2023-11-22T01:33:54;4.92;;;4.20;;
3747;SDS011;1889;50.058;8.688;2023-11-22T01:36:24;3.77;;;2.70;;
3747;SDS011;1889;50.058;8.688;2023-11-22T01:38:53;3.55;;;3.22;;
3747;SDS011;1889;50.058;8.688;2023-11-22T01:41:23;4.97;;;3.08;;
3747;SDS011;1889;50.058;8.688;2023-11-22T01:43:52;4.22;;;3.42;;
3747;SDS011;1889;50.058;8.688;2023-11-22T01:46:23;3.85;;;3.45;;
3747;SDS011;1889;50.058;8.688;2023-11-22T01:48:53;3.58;;;3.27;;
3747;SDS011;1889;50.058;8.688;2023-11-22T01:51:23;4.53;;;3.52;;
3747;SDS011;1889;50.058;8.688;2023-11-22T01:53:55;3.85;;;3.45;;
3747;SDS011;1889;50.058;8.688;2023-11-22T01:56:25;4.67;;;3.25;;
3747;SDS011;1889;50.058;8.688;2023-11-22T01:58:55;5.40;;;3.60;;
3747;SDS011;1889;50.058;8.688;2023-11-22T02:01:26;3.77;;;3.40;;
3747;SDS011;1889;50.058;8.688;2023-11-22T02:03:56;6.95;;;3.95;;
3747;SDS011;1889;50.058;8.688;2023-11-22T02:06:25;4.30;;;3.90;;
3747;SDS011;1889;50.058;8.688;2023-11-22T02:08:55;3.77;;;3.37;;
3747;SDS011;1889;50.058;8.688;2023-11-22T02:11:24;3.95;;;3.55;;
3747;SDS011;1889;50.058;8.688;2023-11-22T02:13:54;4.55;;;3.65;;
3747;SDS011;1889;50.058;8.688;2023-11-22T02:16:24;4.33;;;3.80;;
3747;SDS011;1889;50.058;8.688;2023-11-22T02:18:55;5.03;;;3.72;;
3747;SDS011;1889;50.058;8.688;2023-11-22T02:21:24;3.77;;;3.37;;
3747;SDS011;1889;50.058;8.688;2023-11-22T02:23:54;3.72;;;3.42;;
3747;SDS011;1889;50.058;8.688;2023-11-22T02:26:23;3.35;;;3.05;;
3747;SDS011;1889;50.058;8.688;2023-11-22T02:28:53;4.62;;;3.77;;
3747;SDS011;1889;50.058;8.688;2023-11-22T02:31:22;4.70;;;3.50;;
3747;SDS011;1889;50.058;8.688;2023-11-22T02:33:51;3.90;;;3.25;;
3747;SDS011;1889;50.058;8.688;2023-11-22T02:36:21;4.05;;;3.52;;
3747;SDS011;1889;50.058;8.688;2023-11-22T02:38:52;4.10;;;3.67;;
3747;SDS011;1889;50.058;8.688;2023-11-22T02:41:21;4.22;;;3.83;;
3747;SDS011;1889;50.058;8.688;2023-11-22T02:43:52;3.67;;;3.37;;
3747;SDS011;1889;50.058;8.688;2023-11-22T02:46:22;4.50;;;3.85;;
3747;SDS011;1889;50.058;8.688;2023-11-22T02:48:51;3.92;;;3.20;;
3747;SDS011;1889;50.058;8.688;2023-11-22T02:51:24;5.90;;;3.40;;
3747;SDS011;1889;50.058;8.688;2023-11-22T02:53:53;4.03;;;3.30;;
3747;SDS011;1889;50.058;8.688;2023-11-22T02:56:22;3.58;;;3.17;;
3747;SDS011;1889;50.058;8.688;2023-11-22T02:58:53;3.95;;;2.65;;
3747;SDS011;1889;50.058;8.688;2023-11-22T03:01:23;4.00;;;3.00;;
3747;SDS011;1889;50.058;8.688;2023-11-22T03:03:53;4.60;;;3.25;;
3747;SDS011;1889;50.058;8.688;2023-11-22T03:06:22;4.22;;;2.85;;
3747;SDS011;1889;50.058;8.688;2023-11-22T03:08:52;3.40;;;2.92;;
3747;SDS011;1889;50.058;8.688;2023-11-22T03:11:21;4.45;;;3.27;;
3747;SDS011;1889;50.058;8.688;2023-11-22T03:13:50;3.95;;;3.30;;
3747;SDS011;1889;50.058;8.688;2023-11-22T03:16:20;3.50;;;3.00;;
3747;SDS011;1889;50.058;8.688;2023-11-22T03:18:49;3.35;;;3.05;;
3747;SDS011;1889;50.058;8.688;2023-11-22T03:21:18;3.77;;;3.20;;
3747;SDS011;1889;50.058;8.688;2023-11-22T03:23:48;4.53;;;3.22;;
3747;SDS011;1889;50.058;8.688;2023-11-22T03:26:17;5.58;;;3.70;;
3747;SDS011;1889;50.058;8.688;2023-11-22T03:28:46;3.72;;;3.27;;
3747;SDS011;1889;50.058;8.688;2023-11-22T03:31:16;5.58;;;3.42;;
3747;SDS011;1889;50.058;8.688;2023-11-22T03:33:45;3.60;;;3.30;;
3747;SDS011;1889;50.058;8.688;2023-11-22T03:36:14;5.67;;;3.80;;
3747;SDS011;1889;50.058;8.688;2023-11-22T03:38:44;3.65;;;3.25;;
3747;SDS011;1889;50.058;8.688;2023-11-22T03:41:13;6.78;;;4.15;;
3747;SDS011;1889;50.058;8.688;2023-11-22T03:43:43;6.60;;;4.75;;
3747;SDS011;1889;50.058;8.688;2023-11-22T03:46:12;4.17;;;3.30;;
3747;SDS011;1889;50.058;8.688;2023-11-22T03:48:41;4.67;;;3.70;;
3747;SDS011;1889;50.058;8.688;2023-11-22T03:51:11;4.83;;;3.60;;
3747;SDS011;1889;50.058;8.688;2023-11-22T03:53:40;3.98;;;3.50;;
3747;SDS011;1889;50.058;8.688;2023-11-22T03:56:09;3.55;;;3.25;;
3747;SDS011;1889;50.058;8.688;2023-11-22T03:58:39;4.85;;;3.33;;
3747;SDS011;1889;50.058;8.688;2023-11-22T04:01:09;3.92;;;3.15;;
3747;SDS011;1889;50.058;8.688;2023-11-22T04:03:38;3.92;;;3.20;;
3747;SDS011;1889;50.058;8.688;2023-11-22T04:06:09;4.60;;;3.10;;
3747;SDS011;1889;50.058;8.688;2023-11-22T04:08:38;4.67;;;2.85;;
3747;SDS011;1889;50.058;8.688;2023-11-22T04:11:07;3.30;;;3.00;;
3747;SDS011;1889;50.058;8.688;2023-11-22T04:13:37;3.67;;;2.92;;
3747;SDS011;1889;50.058;8.688;2023-11-22T04:16:07;5.03;;;3.52;;
3747;SDS011;1889;50.058;8.688;2023-11-22T04:18:39;5.08;;;3.60;;
3747;SDS011;1889;50.058;8.688;2023-11-22T04:21:09;4.20;;;3.35;;
3747;SDS011;1889;50.058;8.688;2023-11-22T04:23:38;3.72;;;2.95;;
3747;SDS011;1889;50.058;8.688;2023-11-22T04:26:08;3.42;;;3.12;;
3747;SDS011;1889;50.058;8.688;2023-11-22T04:28:38;4.95;;;3.27;;
3747;SDS011;1889;50.058;8.688;2023-11-22T04:31:07;3.40;;;3.02;;
3747;SDS011;1889;50.058;8.688;2023-11-22T04:33:37;5.25;;;3.22;;
3747;SDS011;1889;50.058;8.688;2023-11-22T04:36:06;3.47;;;3.17;;
3747;SDS011;1889;50.058;8.688;2023-11-22T04:38:36;3.10;;;2.80;;
3747;SDS011;1889;50.058;8.688;2023-11-22T04:41:05;5.17;;;3.08;;
3747;SDS011;1889;50.058;8.688;2023-11-22T04:43:35;4.17;;;3.02;;
3747;SDS011;1889;50.058;8.688;2023-11-22T04:46:04;3.90;;;3.10;;
3747;SDS011;1889;50.058;8.688;2023-11-22T04:48:33;6.03;;;3.22;;
3747;SDS011;1889;50.058;8.688;2023-11-22T04:51:04;4.70;;;3.12;;
3747;SDS011;1889;50.058;8.688;2023-11-22T04:53:33;2.95;;;2.60;;
3747;SDS011;1889;50.058;8.688;2023-11-22T04:56:03;4.00;;;2.83;;
3747;SDS011;1889;50.058;8.688;2023-11-22T04:58:33;3.40;;;3.02;;
3747;SDS011;1889;50.058;8.688;2023-11-22T05:01:03;4.28;;;3.55;;
3747;SDS011;1889;50.058;8.688;2023-11-22T05:03:32;3.62;;;3.25;;
3747;SDS011;1889;50.058;8.688;2023-11-22T05:06:02;3.65;;;3.00;;
3747;SDS011;1889;50.058;8.688;2023-11-22T05:08:32;3.45;;;3.15;;
3747;SDS011;1889;50.058;8.688;2023-11-22T05:11:01;3.08;;;2.77;;
3747;SDS011;1889;50.058;8.688;2023-11-22T05:13:32;4.75;;;3.42;;
3747;SDS011;1889;50.058;8.688;2023-11-22T05:16:01;4.20;;;3.35;;
3747;SDS011;1889;50.058;8.688;2023-11-22T05:18:30;6.00;;;3.27;;
3747;SDS011;1889;50.058;8.688;2023-11-22T05:21:00;4.85;;;3.30;;
3747;SDS011;1889;50.058;8.688;2023-11-22T05:23:31;5.22;;;3.42;;
3747;SDS011;1889;50.058;8.688;2023-11-22T05:26:00;6.40;;;3.30;;
3747;SDS011;1889;50.058;8.688;2023-11-22T05:28:31;6.47;;;3.12;;
3747;SDS011;1889;50.058;8.688;2023-11-22T05:31:01;5.58;;;3.20;;
3747;SDS011;1889;50.058;8.688;2023-11-22T05:33:30;4.00;;;3.22;;
3747;SDS011;1889;50.058;8.688;2023-11-22T05:35:59;3.22;;;2.83;;
3747;SDS011;1889;50.058;8.688;2023-11-22T05:38:29;6.22;;;3.25;;
3747;SDS011;1889;50.058;8.688;2023-11-22T05:41:00;5.33;;;3.60;;
3747;SDS011;1889;50.058;8.688;2023-11-22T05:43:29;4.45;;;3.52;;
3747;SDS011;1889;50.058;8.688;2023-11-22T05:45:59;4.20;;;3.27;;
3747;SDS011;1889;50.058;8.688;2023-11-22T05:48:28;5.03;;;3.80;;
3747;SDS011;1889;50.058;8.688;2023-11-22T05:50:57;6.00;;;3.47;;
3747;SDS011;1889;50.058;8.688;2023-11-22T05:53:27;3.80;;;2.98;;
3747;SDS011;1889;50.058;8.688;2023-11-22T05:55:56;3.25;;;2.85;;
3747;SDS011;1889;50.058;8.688;2023-11-22T05:58:27;3.12;;;2.70;;
3747;SDS011;1889;50.058;8.688;2023-11-22T06:00:57;4.60;;;3.08;;
3747;SDS011;1889;50.058;8.688;2023-11-22T06:03:26;4.40;;;2.87;;
3747;SDS011;1889;50.058;8.688;2023-11-22T06:05:55;4.42;;;3.20;;
3747;SDS011;1889;50.058;8.688;2023-11-22T06:08:25;4.45;;;3.58;;
3747;SDS011;1889;50.058;8.688;2023-11-22T06:10:54;4.87;;;3.60;;
3747;SDS011;1889;50.058;8.688;2023-11-22T06:13:25;3.42;;;3.12;;
3747;SDS011;1889;50.058;8.688;2023-11-22T06:15:55;4.33;;;3.40;;
3747;SDS011;1889;50.058;8.688;2023-11-22T06:18:24;3.75;;;3.37;;
3747;SDS011;1889;50.058;8.688;2023-11-22T06:20:55;4.28;;;3.12;;
3747;SDS011;1889;50.058;8.688;2023-11-22T06:23:25;6.08;;;3.52;;
3747;SDS011;1889;50.058;8.688;2023-11-22T06:25:55;4.03;;;3.37;;
3747;SDS011;1889;50.058;8.688;2023-11-22T06:28:25;4.80;;;3.58;;
3747;SDS011;1889;50.058;8.688;2023-11-22T06:30:54;5.62;;;3.77;;
3747;SDS011;1889;50.058;8.688;2023-11-22T06:33:23;4.15;;;3.25;;
3747;SDS011;1889;50.058;8.688;2023-11-22T06:35:53;6.08;;;3.70;;
3747;SDS011;1889;50.058;8.688;2023-11-22T06:38:22;4.17;;;3.33;;
3747;SDS011;1889;50.058;8.688;2023-11-22T06:40:51;5.60;;;3.70;;
3747;SDS011;1889;50.058;8.688;2023-11-22T06:43:21;4.28;;;3.33;;
3747;SDS011;1889;50.058;8.688;2023-11-22T06:45:50;6.90;;;3.33;;
3747;SDS011;1889;50.058;8.688;2023-11-22T06:48:19;4.37;;;3.72;;
3747;SDS011;1889;50.058;8.688;2023-11-22T06:50:49;4.85;;;3.77;;
3747;SDS011;1889;50.058;8.688;2023-11-22T06:53:19;5.60;;;3.25;;
3747;SDS011;1889;50.058;8.688;2023-11-22T06:55:48;4.33;;;3.30;;
3747;SDS011;1889;50.058;8.688;2023-11-22T06:58:17;6.37;;;3.52;;
3747;SDS011;1889;50.058;8.688;2023-11-22T07:00:47;4.40;;;3.02;;
3747;SDS011;1889;50.058;8.688;2023-11-22T07:03:16;5.00;;;3.15;;
3747;SDS011;1889;50.058;8.688;2023-11-22T07:05:46;5.22;;;3.83;;
3747;SDS011;1889;50.058;8.688;2023-11-22T07:08:15;4.50;;;3.15;;
3747;SDS011;1889;50.058;8.688;2023-11-22T07:10:45;4.50;;;3.20;;
3747;SDS011;1889;50.058;8.688;2023-11-22T07:13:15;4.22;;;3.25;;
3747;SDS011;1889;50.058;8.688;2023-11-22T07:15:45;5.03;;;3.37;;
3747;SDS011;1889;50.058;8.688;2023-11-22T07:18:15;4.80;;;3.17;;
3747;SDS011;1889;50.058;8.688;2023-11-22T07:20:45;4.17;;;3.45;;
3747;SDS011;1889;50.058;8.688;2023-11-22T07:23:15;3.35;;;2.80;;
3747;SDS011;1889;50.058;8.688;2023-11-22T07:25:46;4.65;;;3.00;;
3747;SDS011;1889;50.058;8.688;2023-11-22T07:28:16;5.28;;;3.42;;
3747;SDS011;1889;50.058;8.688;2023-11-22T07:30:46;4.58;;;3.30;;
3747;SDS011;1889;50.058;8.688;2023-11-22T07:33:16;5.05;;;3.50;;
3747;SDS011;1889;50.058;8.688;2023-11-22T07:35:47;4.25;;;3.22;;
3747;SDS011;1889;50.058;8.688;2023-11-22T07:38:16;5.22;;;3.00;;
3747;SDS011;1889;50.058;8.688;2023-11-22T07:40:46;5.40;;;3.47;;
3747;SDS011;1889;50.058;8.688;2023-11-22T07:43:16;3.92;;;3.45;;
3747;SDS011;1889;50.058;8.688;2023-11-22T07:45:46;3.87;;;2.98;;
3747;SDS011;1889;50.058;8.688;2023-11-22T07:48:16;3.58;;;2.80;;
3747;SDS011;1889;50.058;8.688;2023-11-22T07:50:46;5.05;;;3.50;;
3747;SDS011;1889;50.058;8.688;2023-11-22T07:53:16;4.28;;;3.87;;
3747;SDS011;1889;50.058;8.688;2023-11-22T07:55:45;4.42;;;3.47;;
3747;SDS011;1889;50.058;8.688;2023-11-22T07:58:15;3.80;;;3.40;;
3747;SDS011;1889;50.058;8.688;2023-11-22T08:00:44;6.20;;;3.27;;
3747;SDS011;1889;50.058;8.688;2023-11-22T08:03:15;5.22;;;3.08;;
3747;SDS011;1889;50.058;8.688;2023-11-22T08:05:45;6.20;;;3.22;;
3747;SDS011;1889;50.058;8.688;2023-11-22T08:08:15;4.30;;;3.22;;
3747;SDS011;1889;50.058;8.688;2023-11-22T08:10:45;4.47;;;3.40;;
3747;SDS011;1889;50.058;8.688;2023-11-22T08:13:16;3.40;;;3.02;;
3747;SDS011;1889;50.058;8.688;2023-11-22T08:15:47;4.03;;;3.10;;
3747;SDS011;1889;50.058;8.688;2023-11-22T08:18:16;5.20;;;3.67;;
3747;SDS011;1889;50.058;8.688;2023-11-22T08:20:45;6.10;;;4.12;;
3747;SDS011;1889;50.058;8.688;2023-11-22T08:23:14;4.75;;;3.35;;
3747;SDS011;1889;50.058;8.688;2023-11-22T08:25:44;4.15;;;2.85;;
3747;SDS011;1889;50.058;8.688;2023-11-22T08:28:13;4.20;;;3.40;;
3747;SDS011;1889;50.058;8.688;2023-11-22T08:30:43;5.17;;;3.30;;
3747;SDS011;1889;50.058;8.688;2023-11-22T08:33:12;5.40;;;2.85;;
3747;SDS011;1889;50.058;8.688;2023-11-22T08:35:42;4.60;;;2.95;;
3747;SDS011;1889;50.058;8.688;2023-11-22T08:38:11;4.85;;;3.17;;
3747;SDS011;1889;50.058;8.688;2023-11-22T08:40:40;5.50;;;2.98;;
3747;SDS011;1889;50.058;8.688;2023-11-22T08:43:10;5.53;;;3.00;;
3747;SDS011;1889;50.058;8.688;2023-11-22T08:45:39;4.67;;;3.20;;
3747;SDS011;1889;50.058;8.688;2023-11-22T08:48:10;4.60;;;3.10;;
3747;SDS011;1889;50.058;8.688;2023-11-22T08:50:41;6.45;;;3.45;;
3747;SDS011;1889;50.058;8.688;2023-11-22T08:53:12;3.27;;;2.98;;
3747;SDS011;1889;50.058;8.688;2023-11-22T08:55:41;4.47;;;3.10;;
3747;SDS011;1889;50.058;8.688;2023-11-22T08:58:11;5.30;;;3.47;;
3747;SDS011;1889;50.058;8.688;2023-11-22T09:00:41;4.05;;;3.20;;
3747;SDS011;1889;50.058;8.688;2023-11-22T09:03:12;3.70;;;3.22;;
3747;SDS011;1889;50.058;8.688;2023-11-22T09:05:42;4.45;;;3.20;;
3747;SDS011;1889;50.058;8.688;2023-11-22T09:08:13;6.30;;;3.27;;
3747;SDS011;1889;50.058;8.688;2023-11-22T09:10:42;4.95;;;3.33;;
3747;SDS011;1889;50.058;8.688;2023-11-22T09:13:12;5.58;;;3.20;;
3747;SDS011;1889;50.058;8.688;2023-11-22T09:15:43;3.67;;;3.22;;
3747;SDS011;1889;50.058;8.688;2023-11-22T09:18:12;4.00;;;2.95;;
3747;SDS011;1889;50.058;8.688;2023-11-22T09:20:42;4.47;;;3.27;;
3747;SDS011;1889;50.058;8.688;2023-11-22T09:23:14;3.87;;;2.85;;
3747;SDS011;1889;50.058;8.688;2023-11-22T09:25:44;3.70;;;3.08;;
3747;SDS011;1889;50.058;8.688;2023-11-22T09:28:13;4.95;;;3.12;;
3747;SDS011;1889;50.058;8.688;2023-11-22T09:30:43;3.60;;;2.80;;
3747;SDS011;1889;50.058;8.688;2023-11-22T09:33:14;3.85;;;3.02;;
3747;SDS011;1889;50.058;8.688;2023-11-22T09:35:45;3.37;;;3.02;;
3747;SDS011;1889;50.058;8.688;2023-11-22T09:38:16;3.20;;;2.90;;
3747;SDS011;1889;50.058;8.688;2023-11-22T09:40:46;3.80;;;3.25;;
3747;SDS011;1889;50.058;8.688;2023-11-22T09:43:19;3.45;;;2.62;;
3747;SDS011;1889;50.058;8.688;2023-11-22T09:45:51;4.10;;;2.65;;
3747;SDS011;1889;50.058;8.688;2023-11-22T09:48:22;4.45;;;2.60;;
3747;SDS011;1889;50.058;8.688;2023-11-22T09:51:09;4.37;;;2.75;;
3747;SDS011;1889;50.058;8.688;2023-11-22T09:56:15;3.77;;;2.58;;
3747;SDS011;1889;50.058;8.688;2023-11-22T09:58:46;4.33;;;2.70;;
3747;SDS011;1889;50.058;8.688;2023-11-22T10:01:19;4.75;;;3.15;;
3747;SDS011;1889;50.058;8.688;2023-11-22T10:03:49;3.33;;;2.83;;
3747;SDS011;1889;50.058;8.688;2023-11-22T10:06:18;2.80;;;2.42;;
3747;SDS011;1889;50.058;8.688;2023-11-22T10:08:48;4.20;;;3.00;;
3747;SDS011;1889;50.058;8.688;2023-11-22T10:11:18;3.05;;;2.70;;
3747;SDS011;1889;50.058;8.688;2023-11-22T10:13:50;3.37;;;3.00;;
3747;SDS011;1889;50.058;8.688;2023-11-22T10:16:20;3.83;;;2.92;;
3747;SDS011;1889;50.058;8.688;2023-11-22T10:18:49;2.98;;;2.67;;
3747;SDS011;1889;50.058;8.688;2023-11-22T10:21:20;3.75;;;3.08;;
3747;SDS011;1889;50.058;8.688;2023-11-22T10:24:01;3.10;;;2.67;;
3747;SDS011;1889;50.058;8.688;2023-11-22T10:26:31;3.80;;;2.95;;
3747;SDS011;1889;50.058;8.688;2023-11-22T10:29:03;2.92;;;2.62;;
3747;SDS011;1889;50.058;8.688;2023-11-22T10:31:33;3.30;;;2.70;;
3747;SDS011;1889;50.058;8.688;2023-11-22T10:34:03;4.85;;;3.02;;
3747;SDS011;1889;50.058;8.688;2023-11-22T10:36:32;5.15;;;3.80;;
3747;SDS011;1889;50.058;8.688;2023-11-22T10:39:01;3.55;;;3.00;;
3747;SDS011;1889;50.058;8.688;2023-11-22T10:41:31;3.30;;;2.83;;
3747;SDS011;1889;50.058;8.688;2023-11-22T10:44:00;3.77;;;3.33;;
3747;SDS011;1889;50.058;8.688;2023-11-22T10:46:31;3.87;;;3.30;;
3747;SDS011;1889;50.058;8.688;2023-11-22T10:49:00;3.12;;;2.83;;
3747;SDS011;1889;50.058;8.688;2023-11-22T10:51:30;3.02;;;2.65;;
3747;SDS011;1889;50.058;8.688;2023-11-22T10:54:01;2.70;;;2.50;;
3747;SDS011;1889;50.058;8.688;2023-11-22T10:56:36;4.33;;;2.80;;
3747;SDS011;1889;50.058;8.688;2023-11-22T10:59:14;3.65;;;2.83;;
3747;SDS011;1889;50.058;8.688;2023-11-22T11:01:44;3.42;;;2.62;;
3747;SDS011;1889;50.058;8.688;2023-11-22T11:04:20;3.17;;;2.27;;
3747;SDS011;1889;50.058;8.688;2023-11-22T11:06:54;5.35;;;2.85;;
3747;SDS011;1889;50.058;8.688;2023-11-22T11:09:25;2.72;;;2.33;;
3747;SDS011;1889;50.058;8.688;2023-11-22T11:11:57;3.02;;;2.60;;
3747;SDS011;1889;50.058;8.688;2023-11-22T11:14:27;3.02;;;2.50;;
3747;SDS011;1889;50.058;8.688;2023-11-22T11:16:57;4.67;;;3.02;;
3747;SDS011;1889;50.058;8.688;2023-11-22T11:19:26;4.83;;;2.65;;
3747;SDS011;1889;50.058;8.688;2023-11-22T11:21:59;3.67;;;2.90;;
3747;SDS011;1889;50.058;8.688;2023-11-22T11:24:28;4.10;;;3.02;;
3747;SDS011;1889;50.058;8.688;2023-11-22T11:26:58;4.15;;;2.77;;
3747;SDS011;1889;50.058;8.688;2023-11-22T11:29:31;3.37;;;2.72;;
3747;SDS011;1889;50.058;8.688;2023-11-22T11:32:04;5.12;;;3.00;;
3747;SDS011;1889;50.058;8.688;2023-11-22T11:34:41;3.30;;;2.98;;
3747;SDS011;1889;50.058;8.688;2023-11-22T11:37:19;3.80;;;2.80;;
3747;SDS011;1889;50.058;8.688;2023-11-22T11:39:50;3.33;;;2.65;;
3747;SDS011;1889;50.058;8.688;2023-11-22T11:42:19;3.67;;;3.10;;
3747;SDS011;1889;50.058;8.688;2023-11-22T11:44:51;3.00;;;2.70;;
3747;SDS011;1889;50.058;8.688;2023-11-22T11:47:34;2.45;;;2.25;;
3747;SDS011;1889;50.058;8.688;2023-11-22T11:50:03;3.72;;;2.67;;
3747;SDS011;1889;50.058;8.688;2023-11-22T11:52:33;3.50;;;3.05;;
3747;SDS011;1889;50.058;8.688;2023-11-22T11:55:05;4.15;;;2.50;;
3747;SDS011;1889;50.058;8.688;2023-11-22T11:57:34;3.55;;;3.05;;
3747;SDS011;1889;50.058;8.688;2023-11-22T12:00:04;4.58;;;2.62;;
3747;SDS011;1889;50.058;8.688;2023-11-22T12:02:36;4.50;;;2.80;;
3747;SDS011;1889;50.058;8.688;2023-11-22T12:05:06;3.52;;;2.90;;
3747;SDS011;1889;50.058;8.688;2023-11-22T12:07:38;4.17;;;2.95;;
3747;SDS011;1889;50.058;8.688;2023-11-22T12:10:07;3.33;;;2.60;;
3747;SDS011;1889;50.058;8.688;2023-11-22T12:12:37;3.77;;;2.83;;
3747;SDS011;1889;50.058;8.688;2023-11-22T12:15:07;3.50;;;3.20;;
3747;SDS011;1889;50.058;8.688;2023-11-22T12:17:38;3.22;;;2.85;;
3747;SDS011;1889;50.058;8.688;2023-11-22T12:20:10;3.02;;;2.72;;
3747;SDS011;1889;50.058;8.688;2023-11-22T12:22:43;3.98;;;3.50;;
3747;SDS011;1889;50.058;8.688;2023-11-22T12:25:13;5.10;;;4.05;;
3747;SDS011;1889;50.058;8.688;2023-11-22T12:27:43;3.42;;;3.00;;
3747;SDS011;1889;50.058;8.688;2023-11-22T12:30:29;3.65;;;3.35;;
3747;SDS011;1889;50.058;8.688;2023-11-22T12:33:00;4.37;;;3.00;;
3747;SDS011;1889;50.058;8.688;2023-11-22T12:35:34;3.45;;;3.08;;
3747;SDS011;1889;50.058;8.688;2023-11-22T12:38:05;3.22;;;2.60;;
3747;SDS011;1889;50.058;8.688;2023-11-22T12:40:35;3.05;;;2.75;;
3747;SDS011;1889;50.058;8.688;2023-11-22T12:43:04;4.30;;;3.00;;
3747;SDS011;1889;50.058;8.688;2023-11-22T12:45:35;3.87;;;3.20;;
3747;SDS011;1889;50.058;8.688;2023-11-22T12:48:21;3.67;;;2.80;;
3747;SDS011;1889;50.058;8.688;2023-11-22T12:50:52;4.08;;;3.00;;
3747;SDS011;1889;50.058;8.688;2023-11-22T12:53:22;3.25;;;2.50;;
3747;SDS011;1889;50.058;8.688;2023-11-22T12:55:54;3.00;;;2.67;;
3747;SDS011;1889;50.058;8.688;2023-11-22T12:58:25;2.95;;;2.65;;
3747;SDS011;1889;50.058;8.688;2023-11-22T13:00:55;3.33;;;2.80;;
3747;SDS011;1889;50.058;8.688;2023-11-22T13:03:28;3.45;;;2.92;;
3747;SDS011;1889;50.058;8.688;2023-11-22T13:05:57;3.87;;;3.05;;
3747;SDS011;1889;50.058;8.688;2023-11-22T13:08:27;2.83;;;2.62;;
3747;SDS011;1889;50.058;8.688;2023-11-22T13:10:59;3.12;;;2.83;;
3747;SDS011;1889;50.058;8.688;2023-11-22T13:13:28;3.90;;;3.20;;
3747;SDS011;1889;50.058;8.688;2023-11-22T13:15:58;2.92;;;2.62;;
3747;SDS011;1889;50.058;8.688;2023-11-22T13:18:27;5.97;;;2.98;;
3747;SDS011;1889;50.058;8.688;2023-11-22T13:20:56;4.22;;;3.58;;
3747;SDS011;1889;50.058;8.688;2023-11-22T13:23:26;3.60;;;2.70;;
3747;SDS011;1889;50.058;8.688;2023-11-22T13:25:55;3.12;;;2.83;;
3747;SDS011;1889;50.058;8.688;2023-11-22T13:28:24;4.80;;;2.90;;
3747;SDS011;1889;50.058;8.688;2023-11-22T13:30:54;3.40;;;2.58;;
3747;SDS011;1889;50.058;8.688;2023-11-22T13:33:23;3.62;;;2.80;;
3747;SDS011;1889;50.058;8.688;2023-11-22T13:35:52;3.87;;;3.00;;
3747;SDS011;1889;50.058;8.688;2023-11-22T13:38:21;3.55;;;2.98;;
3747;SDS011;1889;50.058;8.688;2023-11-22T13:40:51;4.25;;;3.33;;
3747;SDS011;1889;50.058;8.688;2023-11-22T13:43:20;3.75;;;3.25;;
3747;SDS011;1889;50.058;8.688;2023-11-22T13:45:49;2.80;;;2.50;;
3747;SDS011;1889;50.058;8.688;2023-11-22T13:48:19;4.45;;;3.33;;
3747;SDS011;1889;50.058;8.688;2023-11-22T13:50:50;3.33;;;3.02;;
3747;SDS011;1889;50.058;8.688;2023-11-22T13:53:19;3.75;;;2.80;;
3747;SDS011;1889;50.058;8.688;2023-11-22T13:55:49;3.40;;;2.98;;
3747;SDS011;1889;50.058;8.688;2023-11-22T13:58:20;2.62;;;2.42;;
3747;SDS011;1889;50.058;8.688;2023-11-22T14:00:49;3.95;;;3.12;;
3747;SDS011;1889;50.058;8.688;2023-11-22T14:03:20;3.87;;;3.02;;
3747;SDS011;1889;50.058;8.688;2023-11-22T14:05:50;4.08;;;3.47;;
3747;SDS011;1889;50.058;8.688;2023-11-22T14:08:20;3.60;;;2.92;;
3747;SDS011;1889;50.058;8.688;2023-11-22T14:10:49;3.05;;;2.75;;
3747;SDS011;1889;50.058;8.688;2023-11-22T14:13:18;5.40;;;3.52;;
3747;SDS011;1889;50.058;8.688;2023-11-22T14:15:48;5.00;;;3.02;;
3747;SDS011;1889;50.058;8.688;2023-11-22T14:18:18;3.83;;;2.92;;
3747;SDS011;1889;50.058;8.688;2023-11-22T14:20:48;3.22;;;2.70;;
3747;SDS011;1889;50.058;8.688;2023-11-22T14:23:17;3.87;;;3.10;;
3747;SDS011;1889;50.058;8.688;2023-11-22T14:25:46;4.35;;;3.02;;
3747;SDS011;1889;50.058;8.688;2023-11-22T14:28:16;3.10;;;2.80;;
3747;SDS011;1889;50.058;8.688;2023-11-22T14:30:46;3.10;;;2.85;;
3747;SDS011;1889;50.058;8.688;2023-11-22T14:33:17;3.08;;;2.77;;
3747;SDS011;1889;50.058;8.688;2023-11-22T14:35:46;9.30;;;6.03;;
3747;SDS011;1889;50.058;8.688;2023-11-22T14:38:15;4.03;;;3.15;;
3747;SDS011;1889;50.058;8.688;2023-11-22T14:40:45;3.10;;;2.65;;
3747;SDS011;1889;50.058;8.688;2023-11-22T14:43:15;5.83;;;2.67;;
3747;SDS011;1889;50.058;8.688;2023-11-22T14:45:44;3.37;;;3.05;;
3747;SDS011;1889;50.058;8.688;2023-11-22T14:48:13;3.55;;;2.62;;
3747;SDS011;1889;50.058;8.688;2023-11-22T14:50:43;4.45;;;3.12;;
3747;SDS011;1889;50.058;8.688;2023-11-22T14:53:12;3.30;;;3.00;;
3747;SDS011;1889;50.058;8.688;2023-11-22T14:55:41;4.12;;;3.20;;
3747;SDS011;1889;50.058;8.688;2023-11-22T14:58:11;4.33;;;3.10;;
3747;SDS011;1889;50.058;8.688;2023-11-22T15:00:41;5.15;;;3.05;;
3747;SDS011;1889;50.058;8.688;2023-11-22T15:03:10;4.12;;;3.33;;
3747;SDS011;1889;50.058;8.688;2023-11-22T15:05:40;3.55;;;2.80;;
3747;SDS011;1889;50.058;8.688;2023-11-22T15:08:09;3.50;;;2.80;;
3747;SDS011;1889;50.058;8.688;2023-11-22T15:10:39;4.05;;;3.47;;
3747;SDS011;1889;50.058;8.688;2023-11-22T15:13:08;3.98;;;2.92;;
3747;SDS011;1889;50.058;8.688;2023-11-22T15:15:38;3.42;;;3.10;;
3747;SDS011;1889;50.058;8.688;2023-11-22T15:18:07;6.33;;;3.40;;
3747;SDS011;1889;50.058;8.688;2023-11-22T15:20:38;3.65;;;3.00;;
3747;SDS011;1889;50.058;8.688;2023-11-22T15:23:07;3.70;;;2.72;;
3747;SDS011;1889;50.058;8.688;2023-11-22T15:25:36;4.47;;;3.25;;
3747;SDS011;1889;50.058;8.688;2023-11-22T15:28:05;3.83;;;3.10;;
3747;SDS011;1889;50.058;8.688;2023-11-22T15:30:36;3.65;;;2.90;;
3747;SDS011;1889;50.058;8.688;2023-11-22T15:33:05;3.83;;;3.27;;
3747;SDS011;1889;50.058;8.688;2023-11-22T15:35:35;5.70;;;3.08;;